createdAt,value
2022-11-05T00:00:27.601Z,96210.97
2022-11-05T00:02:54.734Z,96198.81
2022-11-05T00:05:21.904Z,96198.53
2022-11-05T00:07:52.356Z,96206.13
2022-11-05T00:10:23.692Z,96206.03
2022-11-05T00:12:52.156Z,96198.28
2022-11-05T00:15:19.264Z,96197.38
2022-11-05T00:17:46.607Z,96204.13
2022-11-05T00:20:13.917Z,96213.03
2022-11-05T00:22:41.454Z,96202.88
2022-11-05T00:25:09.470Z,96217.47
2022-11-05T00:27:38.283Z,96217.03
2022-11-05T00:30:06.443Z,96235.28
2022-11-05T00:32:33.813Z,96247.78
2022-11-05T00:35:00.894Z,96241.28
2022-11-05T00:37:28.439Z,96253.53
2022-11-05T00:39:55.670Z,96272.25
2022-11-05T00:42:22.704Z,96279.06
2022-11-05T00:44:51.504Z,96281.00
2022-11-05T00:47:18.629Z,96278.41
2022-11-05T00:49:45.897Z,96265.94
2022-11-05T00:52:13.018Z,96234.06
2022-11-05T00:54:40.189Z,96233.03
2022-11-05T00:57:07.490Z,96241.38
2022-11-05T00:59:34.629Z,96250.84
2022-11-05T01:02:03.403Z,96273.00
2022-11-05T01:04:31.522Z,96282.75
2022-11-05T01:06:58.738Z,96276.72
2022-11-05T01:09:26.451Z,96274.91
2022-11-05T01:11:53.446Z,96275.09
2022-11-05T01:14:20.716Z,96293.22
2022-11-05T01:16:47.822Z,96298.31
2022-11-05T01:19:16.538Z,96292.81
2022-11-05T01:21:43.588Z,96289.06
2022-11-05T01:24:11.143Z,96285.81
2022-11-05T01:26:38.083Z,96285.81
2022-11-05T01:29:05.282Z,96274.84
2022-11-05T01:31:32.795Z,96279.91
2022-11-05T01:34:01.015Z,96262.59
2022-11-05T01:36:30.169Z,96265.09
2022-11-05T01:38:57.110Z,96269.34
2022-11-05T01:41:24.508Z,96273.25
2022-11-05T01:43:54.078Z,96276.00
2022-11-05T01:46:27.197Z,96281.06
2022-11-05T01:49:02.691Z,96278.75
2022-11-05T01:51:32.337Z,96279.72
2022-11-05T01:54:03.701Z,96284.47
2022-11-05T01:56:34.842Z,96294.88
2022-11-05T01:59:06.768Z,96293.22
2022-11-05T02:01:34.330Z,96285.41
2022-11-05T02:04:04.924Z,96282.06
2022-11-05T02:06:37.638Z,96280.34
2022-11-05T02:09:09.576Z,96280.34
2022-11-05T02:11:36.727Z,96281.91
2022-11-05T02:14:06.051Z,96285.16
2022-11-05T02:16:40.118Z,96285.00
2022-11-05T02:19:25.996Z,96293.81
2022-11-05T02:22:28.148Z,96304.22
2022-11-05T02:25:05.478Z,96298.88
2022-11-05T02:28:09.065Z,96290.50
2022-11-05T02:30:47.561Z,96288.16
2022-11-05T02:33:39.416Z,96289.97
2022-11-05T02:36:32.533Z,96295.28
2022-11-05T02:39:12.162Z,96298.19
2022-11-05T02:41:53.052Z,96295.78
2022-11-05T02:44:28.956Z,96278.66
2022-11-05T02:47:07.287Z,96286.91
2022-11-05T02:49:44.514Z,96298.19
2022-11-05T02:52:20.272Z,96306.88
2022-11-05T02:54:57.672Z,96290.38
2022-11-05T02:57:24.701Z,96298.72
2022-11-05T03:00:00.963Z,96296.88
2022-11-05T03:02:29.620Z,96291.97
2022-11-05T03:04:57.045Z,96291.22
2022-11-05T03:07:36.943Z,96283.56
2022-11-05T03:10:21.321Z,96284.97
2022-11-05T03:13:01.001Z,96283.06
2022-11-05T03:15:56.807Z,96280.41
2022-11-05T03:18:35.147Z,96286.81
2022-11-05T03:21:09.877Z,96282.81
2022-11-05T03:23:43.337Z,96286.31
2022-11-05T03:26:17.863Z,96282.72
2022-11-05T03:28:49.453Z,96283.50
2022-11-05T03:31:17.890Z,96293.03
2022-11-05T03:33:49.380Z,96277.66
2022-11-05T03:36:22.966Z,96286.72
2022-11-05T03:38:53.285Z,96281.31
2022-11-05T03:41:23.411Z,96277.75
2022-11-05T03:43:55.210Z,96253.50
2022-11-05T03:46:28.741Z,96278.56
2022-11-05T03:49:02.492Z,96283.81
2022-11-05T03:51:38.803Z,96290.13
2022-11-05T03:54:06.651Z,96309.22
2022-11-05T03:56:38.664Z,96312.44
2022-11-05T03:59:08.177Z,96315.75
2022-11-05T04:01:37.787Z,96313.19
2022-11-05T04:04:08.099Z,96318.78
2022-11-05T04:06:36.399Z,96318.00
2022-11-05T04:09:03.921Z,96329.34
2022-11-05T04:11:31.104Z,96329.28
2022-11-05T04:13:58.374Z,96339.75
2022-11-05T04:16:25.393Z,96350.31
2022-11-05T04:18:52.532Z,96342.59
2022-11-05T04:21:21.097Z,96339.31
2022-11-05T04:23:48.381Z,96341.22
2022-11-05T04:26:15.503Z,96348.22
2022-11-05T04:28:42.447Z,96342.31
2022-11-05T04:31:09.667Z,96342.13
2022-11-05T04:33:36.875Z,96343.81
2022-11-05T04:36:04.769Z,96351.31
2022-11-05T04:38:33.856Z,96351.31
2022-11-05T04:41:13.581Z,96359.78
2022-11-05T04:43:40.721Z,96368.31
2022-11-05T04:46:08.491Z,96361.22
2022-11-05T04:48:35.726Z,96364.94
2022-11-05T04:51:02.904Z,96370.59
2022-11-05T04:53:29.963Z,96377.44
2022-11-05T04:56:11.657Z,96382.50
2022-11-05T04:58:42.236Z,96385.75
2022-11-05T05:01:13.704Z,96396.69
2022-11-05T05:03:40.868Z,96396.59
2022-11-05T05:06:09.656Z,96403.34
2022-11-05T05:08:36.935Z,96416.16
2022-11-05T05:11:05.402Z,96409.66
2022-11-05T05:13:34.616Z,96408.06
2022-11-05T05:16:06.536Z,96413.91
2022-11-05T05:18:33.849Z,96410.56
2022-11-05T05:21:01.497Z,96413.16
2022-11-05T05:23:28.499Z,96425.97
2022-11-05T05:25:55.421Z,96424.22
2022-11-05T05:28:22.521Z,96418.81
2022-11-05T05:30:56.124Z,96444.47
2022-11-05T05:33:25.285Z,96440.22
2022-11-05T05:35:52.536Z,96439.28
2022-11-05T05:38:19.657Z,96436.72
2022-11-05T05:40:46.680Z,96455.63
2022-11-05T05:43:13.914Z,96450.22
2022-11-05T05:45:41.502Z,96457.91
2022-11-05T05:48:10.349Z,96461.22
2022-11-05T05:50:37.505Z,96460.41
2022-11-05T05:53:04.705Z,96458.88
2022-11-05T05:55:32.096Z,96459.69
2022-11-05T05:57:59.297Z,96458.06
2022-11-05T06:00:26.358Z,96449.47
2022-11-05T06:02:55.870Z,96441.56
2022-11-05T06:05:24.792Z,96445.00
2022-11-05T06:07:56.635Z,96436.25
2022-11-05T06:10:24.137Z,96445.91
2022-11-05T06:12:51.410Z,96462.28
2022-11-05T06:15:18.628Z,96472.75
2022-11-05T06:17:46.068Z,96472.75
2022-11-05T06:20:13.530Z,96471.88
2022-11-05T06:22:42.741Z,96475.03
2022-11-05T06:25:14.083Z,96469.72
2022-11-05T06:27:41.326Z,96470.56
2022-11-05T06:30:09.867Z,96481.31
2022-11-05T06:32:37.098Z,96472.59
2022-11-05T06:35:04.750Z,96476.22
2022-11-05T06:37:32.786Z,96476.22
2022-11-05T06:40:02.367Z,96485.03
2022-11-05T06:42:29.403Z,96486.56
2022-11-05T06:44:56.455Z,96498.41
2022-11-05T06:47:23.486Z,96496.56
2022-11-05T06:49:50.722Z,96495.66
2022-11-05T06:52:18.438Z,96508.41
2022-11-05T06:54:45.708Z,96506.56
2022-11-05T06:57:14.211Z,96518.38
2022-11-05T06:59:41.760Z,96532.50
2022-11-05T07:02:12.270Z,96532.16
2022-11-05T07:04:39.781Z,96518.84
2022-11-05T07:07:07.126Z,96521.03
2022-11-05T07:09:34.381Z,96519.03
2022-11-05T07:12:01.586Z,96529.09
2022-11-05T07:14:30.301Z,96521.13
2022-11-05T07:16:57.623Z,96526.81
2022-11-05T07:19:24.745Z,96524.78
2022-11-05T07:21:51.977Z,96524.50
2022-11-05T07:24:19.264Z,96529.25
2022-11-05T07:26:46.359Z,96518.41
2022-11-05T07:29:13.637Z,96513.38
2022-11-05T07:31:42.540Z,96509.19
2022-11-05T07:34:09.664Z,96519.66
2022-11-05T07:36:36.796Z,96516.28
2022-11-05T07:39:04.094Z,96526.56
2022-11-05T07:41:31.358Z,96524.28
2022-11-05T07:43:58.603Z,96523.28
2022-11-05T07:46:26.077Z,96529.50
2022-11-05T07:48:54.569Z,96528.03
2022-11-05T07:51:22.422Z,96529.03
2022-11-05T07:53:49.588Z,96532.09
2022-11-05T07:56:16.942Z,96536.78
2022-11-05T07:58:44.146Z,96541.59
2022-11-05T08:01:11.448Z,96538.44
2022-11-05T08:03:39.090Z,96530.41
2022-11-05T08:06:08.360Z,96527.31
2022-11-05T08:08:35.611Z,96533.91
2022-11-05T08:11:03.400Z,96523.16
2022-11-05T08:13:30.783Z,96525.53
2022-11-05T08:15:58.067Z,96531.16
2022-11-05T08:18:25.639Z,96536.94
2022-11-05T08:20:53.061Z,96536.34
2022-11-05T08:23:21.764Z,96533.56
2022-11-05T08:25:48.790Z,96535.00
2022-11-05T08:28:15.768Z,96534.09
2022-11-05T08:30:43.253Z,96527.56
2022-11-05T08:33:12.398Z,96525.63
2022-11-05T08:35:40.644Z,96535.72
2022-11-05T08:38:10.233Z,96533.94
2022-11-05T08:40:38.898Z,96526.91
2022-11-05T08:43:08.216Z,96532.94
2022-11-05T08:45:38.276Z,96530.88
2022-11-05T08:48:07.884Z,96530.34
2022-11-05T08:50:35.592Z,96528.88
2022-11-05T08:53:02.952Z,96522.66
2022-11-05T08:55:30.145Z,96514.47
2022-11-05T08:58:00.323Z,96516.88
2022-11-05T09:00:30.599Z,96523.41
2022-11-05T09:02:59.141Z,96525.50
2022-11-05T09:05:26.451Z,96526.97
2022-11-05T09:07:59.392Z,96549.31
2022-11-05T09:10:28.517Z,96534.16
2022-11-05T09:12:55.919Z,96543.22
2022-11-05T09:15:24.688Z,96545.59
2022-11-05T09:17:52.033Z,96556.50
2022-11-05T09:20:19.191Z,96552.91
2022-11-05T09:22:46.434Z,96546.44
2022-11-05T09:25:13.992Z,96545.22
2022-11-05T09:27:41.291Z,96553.09
2022-11-05T09:30:11.140Z,96560.78
2022-11-05T09:32:39.890Z,96563.91
2022-11-05T09:35:08.728Z,96567.06
2022-11-05T09:37:36.296Z,96570.47
2022-11-05T09:40:04.574Z,96568.59
2022-11-05T09:42:37.223Z,96570.78
2022-11-05T09:45:10.377Z,96569.75
2022-11-05T09:47:44.078Z,96560.91
2022-11-05T09:50:16.571Z,96570.16
2022-11-05T09:52:43.919Z,96569.00
2022-11-05T09:55:30.310Z,96558.91
2022-11-05T09:58:00.099Z,96556.09
2022-11-05T10:00:29.332Z,96564.44
2022-11-05T10:03:01.327Z,96563.97
2022-11-05T10:05:29.034Z,96555.47
2022-11-05T10:07:59.621Z,96571.69
2022-11-05T10:10:40.341Z,96561.28
2022-11-05T10:13:25.809Z,96569.81
2022-11-05T10:16:00.373Z,96556.81
2022-11-05T10:18:33.153Z,96552.31
2022-11-05T10:21:01.310Z,96561.81
2022-11-05T10:23:29.182Z,96582.19
2022-11-05T10:26:00.797Z,96578.53
2022-11-05T10:28:29.633Z,96574.78
2022-11-05T10:30:59.753Z,96566.88
2022-11-05T10:33:33.693Z,96575.16
2022-11-05T10:36:04.983Z,96573.53
2022-11-05T10:38:33.146Z,96560.41
2022-11-05T10:41:14.247Z,96578.41
2022-11-05T10:43:47.750Z,96573.91
2022-11-05T10:46:27.635Z,96575.38
2022-11-05T10:49:06.629Z,96577.13
2022-11-05T10:51:33.894Z,96581.28
2022-11-05T10:54:05.667Z,96579.28
2022-11-05T10:56:35.722Z,96581.69
2022-11-05T10:59:09.390Z,96586.56
2022-11-05T11:01:39.181Z,96588.13
2022-11-05T11:04:16.606Z,96591.47
2022-11-05T11:06:50.522Z,96597.53
2022-11-05T11:09:24.454Z,96583.78
2022-11-05T11:12:04.736Z,96593.97
2022-11-05T11:14:32.316Z,96605.72
2022-11-05T11:17:23.816Z,96598.94
2022-11-05T11:19:52.278Z,96601.34
2022-11-05T11:22:21.495Z,96612.38
2022-11-05T11:24:51.570Z,96600.19
2022-11-05T11:27:23.102Z,96606.22
2022-11-05T11:29:57.674Z,96603.59
2022-11-05T11:32:28.613Z,96608.59
2022-11-05T11:34:57.195Z,96613.69
2022-11-05T11:37:28.151Z,96600.47
2022-11-05T11:39:58.220Z,96609.09
2022-11-05T11:42:32.339Z,96601.16
2022-11-05T11:45:02.023Z,96610.31
2022-11-05T11:47:30.118Z,96607.50
2022-11-05T11:49:59.926Z,96612.47
2022-11-05T11:52:30.255Z,96615.81
2022-11-05T11:55:19.830Z,96615.47
2022-11-05T11:57:49.063Z,96613.50
2022-11-05T12:00:17.546Z,96609.94
2022-11-05T12:03:03.696Z,96608.78
2022-11-05T12:05:44.486Z,96614.25
2022-11-05T12:08:36.819Z,96610.34
2022-11-05T12:11:09.000Z,96607.41
2022-11-05T12:14:08.851Z,96612.38
2022-11-05T12:17:12.519Z,96614.19
2022-11-05T12:19:54.739Z,96611.84
2022-11-05T12:22:34.182Z,96614.38
2022-11-05T12:25:21.940Z,96610.38
2022-11-05T12:28:09.339Z,96601.34
2022-11-05T12:30:48.985Z,96604.94
2022-11-05T12:33:27.228Z,96597.69
2022-11-05T12:36:13.507Z,96586.91
2022-11-05T12:39:05.889Z,96595.69
2022-11-05T12:41:40.344Z,96601.00
2022-11-05T12:44:23.624Z,96598.28
2022-11-05T12:47:03.149Z,96605.88
2022-11-05T12:49:46.809Z,96606.84
2022-11-05T12:52:35.561Z,96614.56
2022-11-05T12:55:09.608Z,96624.00
2022-11-05T12:57:40.709Z,96625.44
2022-11-05T13:00:16.609Z,96637.56
2022-11-05T13:02:52.963Z,96624.63
2022-11-05T13:05:28.379Z,96637.66
2022-11-05T13:08:01.318Z,96643.94
2022-11-05T13:10:35.535Z,96634.78
2022-11-05T13:13:12.417Z,96637.72
2022-11-05T13:15:46.244Z,96645.66
2022-11-05T13:18:18.839Z,96652.66
2022-11-05T13:20:52.367Z,96655.28
2022-11-05T13:23:31.342Z,96655.16
2022-11-05T13:26:06.591Z,96661.66
2022-11-05T13:28:45.355Z,96650.63
2022-11-05T13:31:18.077Z,96663.66
2022-11-05T13:33:49.354Z,96657.84
2022-11-05T13:36:22.939Z,96663.53
2022-11-05T13:38:54.949Z,96670.97
2022-11-05T13:41:34.413Z,96679.94
2022-11-05T13:44:27.118Z,96669.75
2022-11-05T13:47:12.268Z,96663.47
2022-11-05T13:50:11.553Z,96673.56
2022-11-05T13:53:03.979Z,96669.06
2022-11-05T13:55:49.459Z,96677.72
2022-11-05T13:58:37.299Z,96680.84
2022-11-05T14:01:14.787Z,96681.53
2022-11-05T14:03:48.514Z,96664.56
2022-11-05T14:06:24.504Z,96673.34
2022-11-05T14:08:52.545Z,96675.09
2022-11-05T14:11:24.254Z,96672.50
2022-11-05T14:13:56.114Z,96669.06
2022-11-05T14:16:26.803Z,96678.66
2022-11-05T14:18:56.163Z,96679.00
2022-11-05T14:21:33.523Z,96682.75
2022-11-05T14:24:24.951Z,96693.41
2022-11-05T14:27:33.660Z,96689.25
2022-11-05T14:30:01.617Z,96689.25
2022-11-05T14:32:46.449Z,96700.50
2022-11-05T14:35:37.324Z,96709.25
2022-11-05T14:38:06.656Z,96708.56
2022-11-05T14:40:37.296Z,96722.28
2022-11-05T14:43:08.274Z,96723.34
2022-11-05T14:45:37.734Z,96722.41
2022-11-05T14:48:23.639Z,96728.31
2022-11-05T14:50:52.282Z,96725.22
2022-11-05T14:53:34.614Z,96724.28
2022-11-05T14:56:06.069Z,96727.00
2022-11-05T14:58:37.489Z,96725.34
2022-11-05T15:01:07.621Z,96730.31
2022-11-05T15:04:01.521Z,96733.03
2022-11-05T15:06:34.467Z,96724.72
2022-11-05T15:09:17.339Z,96726.00
2022-11-05T15:11:57.594Z,96747.88
2022-11-05T15:14:31.821Z,96759.47
2022-11-05T15:17:04.375Z,96747.28
2022-11-05T15:19:35.867Z,96752.72
2022-11-05T15:22:07.389Z,96755.44
2022-11-05T15:24:35.694Z,96746.88
2022-11-05T15:27:08.389Z,96747.94
2022-11-05T15:29:35.566Z,96748.16
2022-11-05T15:32:03.207Z,96745.88
2022-11-05T15:34:33.798Z,96749.00
2022-11-05T15:37:02.846Z,96753.88
2022-11-05T15:39:34.500Z,96749.19
2022-11-05T15:42:11.780Z,96745.44
2022-11-05T15:44:40.926Z,96740.84
2022-11-05T15:47:18.033Z,96739.47
2022-11-05T15:49:51.890Z,96741.66
2022-11-05T15:52:22.527Z,96738.88
2022-11-05T15:55:18.189Z,96739.56
2022-11-05T15:57:51.081Z,96740.81
2022-11-05T16:00:22.249Z,96746.50
2022-11-05T16:02:55.826Z,96746.38
2022-11-05T16:05:27.234Z,96750.09
2022-11-05T16:07:57.829Z,96755.50
2022-11-05T16:10:29.873Z,96747.28
2022-11-05T16:12:58.110Z,96759.75
2022-11-05T16:15:27.916Z,96769.69
2022-11-05T16:17:57.356Z,96786.59
2022-11-05T16:20:30.794Z,96783.53
2022-11-05T16:23:00.470Z,96794.34
2022-11-05T16:25:36.744Z,96809.25
2022-11-05T16:28:05.561Z,96803.63
2022-11-05T16:30:33.514Z,96810.03
2022-11-05T16:33:07.056Z,96808.09
2022-11-05T16:35:47.931Z,96816.25
2022-11-05T16:38:17.286Z,96827.66
2022-11-05T16:40:44.497Z,96827.38
2022-11-05T16:43:20.424Z,96839.16
2022-11-05T16:45:48.581Z,96828.44
2022-11-05T16:48:18.450Z,96834.75
2022-11-05T16:50:48.716Z,96846.84
2022-11-05T16:53:17.873Z,96852.63
2022-11-05T16:55:46.742Z,96854.84
2022-11-05T16:58:21.589Z,96856.09
2022-11-05T17:00:51.023Z,96862.97
2022-11-05T17:03:19.110Z,96864.44
2022-11-05T17:05:49.135Z,96860.47
2022-11-05T17:08:16.703Z,96863.72
2022-11-05T17:10:45.063Z,96878.44
2022-11-05T17:13:16.402Z,96867.59
2022-11-05T17:15:45.881Z,96878.84
2022-11-05T17:18:18.607Z,96872.19
2022-11-05T17:20:51.765Z,96878.44
2022-11-05T17:23:22.056Z,96867.25
2022-11-05T17:25:52.687Z,96880.22
2022-11-05T17:28:21.563Z,96879.81
2022-11-05T17:30:52.949Z,96869.63
2022-11-05T17:33:22.125Z,96882.91
2022-11-05T17:35:52.263Z,96878.06
2022-11-05T17:38:21.469Z,96881.13
2022-11-05T17:40:50.351Z,96887.56
2022-11-05T17:43:19.374Z,96884.22
2022-11-05T17:45:49.364Z,96883.34
2022-11-05T17:48:17.810Z,96896.63
2022-11-05T17:50:47.388Z,96896.03
2022-11-05T17:53:20.313Z,96900.63
2022-11-05T17:55:48.659Z,96902.66
2022-11-05T17:58:16.717Z,96909.16
2022-11-05T18:00:46.594Z,96899.94
2022-11-05T18:03:15.344Z,96900.94
2022-11-05T18:05:44.341Z,96909.63
2022-11-05T18:08:12.800Z,96911.75
2022-11-05T18:10:44.011Z,96904.13
2022-11-05T18:13:12.597Z,96909.69
2022-11-05T18:15:40.457Z,96914.88
2022-11-05T18:18:08.349Z,96914.41
2022-11-05T18:20:36.705Z,96927.50
2022-11-05T18:23:05.612Z,96919.06
2022-11-05T18:25:37.137Z,96921.94
2022-11-05T18:28:10.184Z,96935.03
2022-11-05T18:30:39.798Z,96931.56
2022-11-05T18:33:08.022Z,96944.34
2022-11-05T18:35:43.624Z,96927.56
2022-11-05T18:38:12.827Z,96928.56
2022-11-05T18:40:40.771Z,96943.16
2022-11-05T18:43:11.153Z,96947.56
2022-11-05T18:45:39.799Z,96952.84
2022-11-05T18:48:08.032Z,96946.13
2022-11-05T18:50:36.325Z,96949.09
2022-11-05T18:53:05.323Z,96955.44
2022-11-05T18:55:32.885Z,96959.03
2022-11-05T18:58:03.145Z,96961.53
2022-11-05T19:00:33.851Z,96966.69
2022-11-05T19:03:01.928Z,96966.56
2022-11-05T19:05:30.907Z,96971.72
2022-11-05T19:07:59.688Z,96978.00
2022-11-05T19:10:28.725Z,96975.63
2022-11-05T19:12:56.665Z,96978.44
2022-11-05T19:15:25.993Z,96986.66
2022-11-05T19:17:56.250Z,96979.19
2022-11-05T19:20:24.782Z,96983.59
2022-11-05T19:22:53.545Z,96986.53
2022-11-05T19:25:21.993Z,96973.28
2022-11-05T19:27:50.647Z,96988.19
2022-11-05T19:30:22.694Z,96990.75
2022-11-05T19:32:51.243Z,96995.34
2022-11-05T19:35:22.500Z,97015.06
2022-11-05T19:37:50.462Z,97001.47
2022-11-05T19:40:19.046Z,97004.25
2022-11-05T19:42:49.264Z,97015.72
2022-11-05T19:48:18.879Z,97017.69
2022-11-05T19:50:51.650Z,97014.47
2022-11-05T19:53:22.536Z,97020.59
2022-11-05T19:55:50.715Z,97015.56
2022-11-05T19:58:19.073Z,97029.00
2022-11-05T20:00:46.803Z,97027.19
2022-11-05T20:03:15.322Z,97032.53
2022-11-05T20:05:42.733Z,97022.47
2022-11-05T20:08:14.344Z,97025.44
2022-11-05T20:10:43.000Z,97017.13
2022-11-05T20:13:17.001Z,97014.72
2022-11-05T20:15:49.022Z,97020.84
2022-11-05T20:18:17.720Z,97019.28
2022-11-05T20:20:45.612Z,97021.34
2022-11-05T20:23:16.802Z,97016.97
2022-11-05T20:25:45.430Z,97023.41
2022-11-05T20:28:14.656Z,97029.56
2022-11-05T20:30:43.998Z,97032.03
2022-11-05T20:33:13.566Z,97028.69
2022-11-05T20:35:45.997Z,97027.97
2022-11-05T20:38:16.535Z,97035.84
2022-11-05T20:40:45.077Z,97020.38
2022-11-05T20:43:12.651Z,97044.50
2022-11-05T20:45:40.309Z,97038.47
2022-11-05T20:48:08.270Z,97036.91
2022-11-05T20:50:41.463Z,97047.41
2022-11-05T20:53:10.744Z,97048.28
2022-11-05T20:55:44.720Z,97046.84
2022-11-05T20:58:12.818Z,97046.06
2022-11-05T21:00:41.325Z,97038.44
2022-11-05T21:03:14.498Z,97044.56
2022-11-05T21:05:46.461Z,97032.63
2022-11-05T21:08:15.754Z,97031.00
2022-11-05T21:10:50.873Z,97036.34
2022-11-05T21:13:19.987Z,97048.50
2022-11-05T21:15:52.078Z,97044.53
2022-11-05T21:18:22.221Z,97045.63
2022-11-05T21:20:51.152Z,97042.09
2022-11-05T21:23:20.498Z,97044.91
2022-11-05T21:25:50.089Z,97047.44
2022-11-05T21:28:18.769Z,97054.34
2022-11-05T21:30:47.105Z,97047.47
2022-11-05T21:33:19.004Z,97045.78
2022-11-05T21:35:48.509Z,97057.03
2022-11-05T21:38:17.873Z,97051.16
2022-11-05T21:40:46.195Z,97043.50
2022-11-05T21:43:17.020Z,97051.34
2022-11-05T21:45:45.375Z,97047.06
2022-11-05T21:48:13.238Z,97053.13
2022-11-05T21:50:40.827Z,97057.59
2022-11-05T21:53:11.682Z,97049.16
2022-11-05T21:55:41.613Z,97049.22
2022-11-05T21:58:14.356Z,97053.47
2022-11-05T22:00:44.554Z,97050.84
2022-11-05T22:03:12.094Z,97058.47
2022-11-05T22:05:40.333Z,97058.41
2022-11-05T22:08:08.065Z,97050.84
2022-11-05T22:10:35.069Z,97047.53
2022-11-05T22:13:02.361Z,97050.19
2022-11-05T22:15:29.644Z,97050.25
2022-11-05T22:17:59.026Z,97053.63
2022-11-05T22:20:27.075Z,97048.53
2022-11-05T22:22:54.477Z,97051.06
2022-11-05T22:25:22.463Z,97051.88
2022-11-05T22:27:51.372Z,97049.44
2022-11-05T22:30:18.910Z,97044.50
2022-11-05T22:32:45.764Z,97048.72
2022-11-05T22:35:14.790Z,97047.97
2022-11-05T22:37:41.949Z,97048.94
2022-11-05T22:40:10.867Z,97047.97
2022-11-05T22:42:38.205Z,97051.38
2022-11-05T22:45:06.708Z,97046.34
2022-11-05T22:47:33.846Z,97049.81
2022-11-05T22:50:00.878Z,97040.34
2022-11-05T22:52:29.513Z,97042.88
2022-11-05T22:54:57.360Z,97053.31
2022-11-05T22:57:24.380Z,97047.28
2022-11-05T22:59:51.509Z,97045.81
2022-11-05T23:02:18.887Z,97049.19
2022-11-05T23:04:46.829Z,97041.59
2022-11-05T23:07:14.008Z,97042.41
2022-11-05T23:09:42.534Z,97047.63
2022-11-05T23:12:21.647Z,97047.63
2022-11-05T23:14:48.981Z,97045.91
2022-11-05T23:17:16.473Z,97045.16
2022-11-05T23:19:43.965Z,97040.94
2022-11-05T23:22:12.702Z,97036.75
2022-11-05T23:24:39.804Z,97051.28
2022-11-05T23:27:08.455Z,97038.38
2022-11-05T23:29:35.929Z,97041.91
2022-11-05T23:32:03.014Z,97045.34
2022-11-05T23:34:30.593Z,97042.13
2022-11-05T23:36:57.723Z,97040.47
2022-11-05T23:39:25.603Z,97045.69
2022-11-05T23:41:52.897Z,97037.97
2022-11-05T23:44:21.982Z,97039.69
2022-11-05T23:46:49.326Z,97044.19
2022-11-05T23:49:16.314Z,97053.56
2022-11-05T23:51:43.465Z,97051.88
2022-11-05T23:54:10.730Z,97056.19
2022-11-05T23:56:38.202Z,97057.13
2022-11-05T23:59:05.761Z,97049.44
